sensor_id;sensor_type;location;lat;lon;timestamp;P1;durP1;ratioP1;P2;durP2;ratioP2
21657;SDS011;10990;48.174;9.782;2023-07-31T00:00:03;4.22;;;1.33;;
21657;SDS011;10990;48.174;9.782;2023-07-31T00:02:31;1.95;;;1.30;;
21657;SDS011;10990;48.174;9.782;2023-07-31T00:04:58;2.35;;;1.30;;
21657;SDS011;10990;48.174;9.782;2023-07-31T00:07:25;2.08;;;1.30;;
21657;SDS011;10990;48.174;9.782;2023-07-31T00:09:51;4.40;;;1.40;;
21657;SDS011;10990;48.174;9.782;2023-07-31T00:12:20;4.28;;;1.30;;
21657;SDS011;10990;48.174;9.782;2023-07-31T00:14:46;3.55;;;1.40;;
21657;SDS011;10990;48.174;9.782;2023-07-31T00:17:13;2.22;;;1.13;;
21657;SDS011;10990;48.174;9.782;2023-07-31T00:19:40;3.97;;;1.52;;
21657;SDS011;10990;48.174;9.782;2023-07-31T00:22:07;2.00;;;1.40;;
21657;SDS011;10990;48.174;9.782;2023-07-31T00:24:33;2.78;;;1.42;;
21657;SDS011;10990;48.174;9.782;2023-07-31T00:27:00;2.47;;;1.30;;
21657;SDS011;10990;48.174;9.782;2023-07-31T00:29:28;1.70;;;1.33;;
21657;SDS011;10990;48.174;9.782;2023-07-31T00:31:56;1.92;;;1.30;;
21657;SDS011;10990;48.174;9.782;2023-07-31T00:34:23;2.00;;;1.30;;
21657;SDS011;10990;48.174;9.782;2023-07-31T00:36:49;3.05;;;1.35;;
21657;SDS011;10990;48.174;9.782;2023-07-31T00:39:16;1.88;;;1.30;;
21657;SDS011;10990;48.174;9.782;2023-07-31T00:41:44;2.53;;;1.30;;
21657;SDS011;10990;48.174;9.782;2023-07-31T00:44:10;1.40;;;1.30;;
21657;SDS011;10990;48.174;9.782;2023-07-31T00:46:38;3.00;;;1.40;;
21657;SDS011;10990;48.174;9.782;2023-07-31T00:49:05;1.83;;;1.33;;
21657;SDS011;10990;48.174;9.782;2023-07-31T00:51:32;2.67;;;1.30;;
21657;SDS011;10990;48.174;9.782;2023-07-31T00:53:59;2.92;;;1.40;;
21657;SDS011;10990;48.174;9.782;2023-07-31T00:56:26;1.35;;;1.20;;
21657;SDS011;10990;48.174;9.782;2023-07-31T00:58:54;1.70;;;1.30;;
21657;SDS011;10990;48.174;9.782;2023-07-31T01:01:21;2.50;;;1.48;;
21657;SDS011;10990;48.174;9.782;2023-07-31T01:03:50;2.70;;;1.35;;
21657;SDS011;10990;48.174;9.782;2023-07-31T01:06:22;3.95;;;1.55;;
21657;SDS011;10990;48.174;9.782;2023-07-31T01:08:58;2.90;;;1.40;;
21657;SDS011;10990;48.174;9.782;2023-07-31T01:11:29;1.77;;;1.23;;
21657;SDS011;10990;48.174;9.782;2023-07-31T01:13:57;3.03;;;1.20;;
21657;SDS011;10990;48.174;9.782;2023-07-31T01:16:24;2.20;;;1.27;;
21657;SDS011;10990;48.174;9.782;2023-07-31T01:18:54;1.48;;;1.30;;
21657;SDS011;10990;48.174;9.782;2023-07-31T01:21:41;2.58;;;1.17;;
21657;SDS011;10990;48.174;9.782;2023-07-31T01:24:25;2.03;;;1.30;;
21657;SDS011;10990;48.174;9.782;2023-07-31T01:27:02;2.58;;;1.40;;
21657;SDS011;10990;48.174;9.782;2023-07-31T01:29:34;2.10;;;1.58;;
21657;SDS011;10990;48.174;9.782;2023-07-31T01:32:05;3.13;;;1.58;;
21657;SDS011;10990;48.174;9.782;2023-07-31T01:34:34;2.55;;;1.52;;
21657;SDS011;10990;48.174;9.782;2023-07-31T01:37:02;1.40;;;1.30;;
21657;SDS011;10990;48.174;9.782;2023-07-31T01:39:29;2.38;;;1.27;;
21657;SDS011;10990;48.174;9.782;2023-07-31T01:41:56;3.00;;;1.50;;
21657;SDS011;10990;48.174;9.782;2023-07-31T01:44:24;3.22;;;1.30;;
21657;SDS011;10990;48.174;9.782;2023-07-31T01:46:50;2.90;;;1.38;;
21657;SDS011;10990;48.174;9.782;2023-07-31T01:49:17;1.85;;;1.38;;
21657;SDS011;10990;48.174;9.782;2023-07-31T01:51:44;1.95;;;1.30;;
21657;SDS011;10990;48.174;9.782;2023-07-31T01:54:11;1.98;;;1.50;;
21657;SDS011;10990;48.174;9.782;2023-07-31T01:56:37;1.20;;;1.10;;
21657;SDS011;10990;48.174;9.782;2023-07-31T01:59:04;1.23;;;1.13;;
21657;SDS011;10990;48.174;9.782;2023-07-31T02:01:32;2.95;;;1.35;;
21657;SDS011;10990;48.174;9.782;2023-07-31T02:03:59;2.20;;;1.30;;
21657;SDS011;10990;48.174;9.782;2023-07-31T02:06:26;1.65;;;1.20;;
21657;SDS011;10990;48.174;9.782;2023-07-31T02:08:53;3.17;;;1.45;;
21657;SDS011;10990;48.174;9.782;2023-07-31T02:11:20;2.22;;;1.20;;
21657;SDS011;10990;48.174;9.782;2023-07-31T02:13:48;2.83;;;1.42;;
21657;SDS011;10990;48.174;9.782;2023-07-31T02:16:15;4.80;;;1.25;;
21657;SDS011;10990;48.174;9.782;2023-07-31T02:18:43;2.15;;;1.30;;
21657;SDS011;10990;48.174;9.782;2023-07-31T02:21:11;2.75;;;1.30;;
21657;SDS011;10990;48.174;9.782;2023-07-31T02:23:38;3.80;;;1.23;;
21657;SDS011;10990;48.174;9.782;2023-07-31T02:26:05;3.30;;;1.33;;
21657;SDS011;10990;48.174;9.782;2023-07-31T02:28:31;2.35;;;1.45;;
21657;SDS011;10990;48.174;9.782;2023-07-31T02:30:58;3.28;;;1.60;;
21657;SDS011;10990;48.174;9.782;2023-07-31T02:33:25;2.58;;;1.40;;
21657;SDS011;10990;48.174;9.782;2023-07-31T02:35:53;2.97;;;1.70;;
21657;SDS011;10990;48.174;9.782;2023-07-31T02:38:21;2.35;;;1.35;;
21657;SDS011;10990;48.174;9.782;2023-07-31T02:40:48;1.75;;;1.20;;
21657;SDS011;10990;48.174;9.782;2023-07-31T02:43:15;2.33;;;1.40;;
21657;SDS011;10990;48.174;9.782;2023-07-31T02:45:42;4.10;;;1.30;;
21657;SDS011;10990;48.174;9.782;2023-07-31T02:48:09;2.00;;;1.48;;
21657;SDS011;10990;48.174;9.782;2023-07-31T02:50:36;1.77;;;1.30;;
21657;SDS011;10990;48.174;9.782;2023-07-31T02:53:04;2.72;;;1.40;;
21657;SDS011;10990;48.174;9.782;2023-07-31T02:55:31;3.30;;;1.45;;
21657;SDS011;10990;48.174;9.782;2023-07-31T02:57:58;3.08;;;1.30;;
21657;SDS011;10990;48.174;9.782;2023-07-31T03:00:25;2.55;;;1.48;;
21657;SDS011;10990;48.174;9.782;2023-07-31T03:02:52;2.38;;;1.30;;
21657;SDS011;10990;48.174;9.782;2023-07-31T03:05:19;1.45;;;1.23;;
21657;SDS011;10990;48.174;9.782;2023-07-31T03:07:45;4.30;;;1.67;;
21657;SDS011;10990;48.174;9.782;2023-07-31T03:10:14;4.80;;;1.58;;
21657;SDS011;10990;48.174;9.782;2023-07-31T03:12:40;3.42;;;1.40;;
21657;SDS011;10990;48.174;9.782;2023-07-31T03:15:08;3.42;;;1.20;;
21657;SDS011;10990;48.174;9.782;2023-07-31T03:17:35;3.10;;;1.60;;
21657;SDS011;10990;48.174;9.782;2023-07-31T03:20:02;2.95;;;1.55;;
21657;SDS011;10990;48.174;9.782;2023-07-31T03:22:29;2.60;;;1.55;;
21657;SDS011;10990;48.174;9.782;2023-07-31T03:24:56;2.42;;;1.50;;
21657;SDS011;10990;48.174;9.782;2023-07-31T03:27:24;3.85;;;1.52;;
21657;SDS011;10990;48.174;9.782;2023-07-31T03:29:51;1.58;;;1.42;;
21657;SDS011;10990;48.174;9.782;2023-07-31T03:32:18;2.17;;;1.40;;
21657;SDS011;10990;48.174;9.782;2023-07-31T03:34:44;2.20;;;1.20;;
21657;SDS011;10990;48.174;9.782;2023-07-31T03:37:11;2.55;;;1.45;;
21657;SDS011;10990;48.174;9.782;2023-07-31T03:39:38;1.88;;;1.25;;
21657;SDS011;10990;48.174;9.782;2023-07-31T03:42:06;2.30;;;1.30;;
21657;SDS011;10990;48.174;9.782;2023-07-31T03:44:34;2.95;;;1.50;;
21657;SDS011;10990;48.174;9.782;2023-07-31T03:47:01;2.20;;;1.55;;
21657;SDS011;10990;48.174;9.782;2023-07-31T03:49:28;1.85;;;1.35;;
21657;SDS011;10990;48.174;9.782;2023-07-31T03:51:54;3.92;;;1.65;;
21657;SDS011;10990;48.174;9.782;2023-07-31T03:54:22;2.72;;;1.45;;
21657;SDS011;10990;48.174;9.782;2023-07-31T03:56:49;2.95;;;1.40;;
21657;SDS011;10990;48.174;9.782;2023-07-31T03:59:15;3.13;;;1.50;;
21657;SDS011;10990;48.174;9.782;2023-07-31T04:01:44;4.53;;;1.70;;
21657;SDS011;10990;48.174;9.782;2023-07-31T04:04:10;2.72;;;1.58;;
21657;SDS011;10990;48.174;9.782;2023-07-31T04:06:37;3.00;;;1.70;;
21657;SDS011;10990;48.174;9.782;2023-07-31T04:09:04;2.03;;;1.30;;
21657;SDS011;10990;48.174;9.782;2023-07-31T04:11:30;4.07;;;1.77;;
21657;SDS011;10990;48.174;9.782;2023-07-31T04:13:57;3.30;;;1.58;;
21657;SDS011;10990;48.174;9.782;2023-07-31T04:16:24;2.67;;;1.60;;
21657;SDS011;10990;48.174;9.782;2023-07-31T04:18:52;3.55;;;1.50;;
21657;SDS011;10990;48.174;9.782;2023-07-31T04:21:19;2.45;;;1.60;;
21657;SDS011;10990;48.174;9.782;2023-07-31T04:23:45;3.50;;;1.75;;
21657;SDS011;10990;48.174;9.782;2023-07-31T04:26:12;2.95;;;1.75;;
21657;SDS011;10990;48.174;9.782;2023-07-31T04:28:39;3.72;;;2.03;;
21657;SDS011;10990;48.174;9.782;2023-07-31T04:31:05;3.78;;;1.90;;
21657;SDS011;10990;48.174;9.782;2023-07-31T04:33:32;2.15;;;1.83;;
21657;SDS011;10990;48.174;9.782;2023-07-31T04:36:00;2.17;;;1.50;;
21657;SDS011;10990;48.174;9.782;2023-07-31T04:38:27;2.33;;;1.75;;
21657;SDS011;10990;48.174;9.782;2023-07-31T04:40:53;3.35;;;2.00;;
21657;SDS011;10990;48.174;9.782;2023-07-31T04:43:20;1.92;;;1.52;;
21657;SDS011;10990;48.174;9.782;2023-07-31T04:45:47;3.40;;;1.63;;
21657;SDS011;10990;48.174;9.782;2023-07-31T04:48:15;5.60;;;1.85;;
21657;SDS011;10990;48.174;9.782;2023-07-31T04:50:42;4.25;;;1.90;;
21657;SDS011;10990;48.174;9.782;2023-07-31T04:53:10;2.22;;;1.70;;
21657;SDS011;10990;48.174;9.782;2023-07-31T04:55:37;5.43;;;2.00;;
21657;SDS011;10990;48.174;9.782;2023-07-31T04:58:04;4.40;;;1.77;;
21657;SDS011;10990;48.174;9.782;2023-07-31T05:00:31;4.32;;;2.15;;
21657;SDS011;10990;48.174;9.782;2023-07-31T05:02:57;3.45;;;1.77;;
21657;SDS011;10990;48.174;9.782;2023-07-31T05:05:24;2.80;;;1.70;;
21657;SDS011;10990;48.174;9.782;2023-07-31T05:07:51;4.25;;;2.00;;
21657;SDS011;10990;48.174;9.782;2023-07-31T05:10:19;4.40;;;1.80;;
21657;SDS011;10990;48.174;9.782;2023-07-31T05:12:46;2.40;;;1.77;;
21657;SDS011;10990;48.174;9.782;2023-07-31T05:15:13;2.80;;;1.92;;
21657;SDS011;10990;48.174;9.782;2023-07-31T05:17:39;5.05;;;2.35;;
21657;SDS011;10990;48.174;9.782;2023-07-31T05:20:07;4.72;;;1.90;;
21657;SDS011;10990;48.174;9.782;2023-07-31T05:22:34;2.75;;;1.80;;
21657;SDS011;10990;48.174;9.782;2023-07-31T05:25:01;3.25;;;1.77;;
21657;SDS011;10990;48.174;9.782;2023-07-31T05:27:29;5.18;;;1.88;;
21657;SDS011;10990;48.174;9.782;2023-07-31T05:29:56;4.70;;;1.85;;
21657;SDS011;10990;48.174;9.782;2023-07-31T05:32:23;2.33;;;1.50;;
21657;SDS011;10990;48.174;9.782;2023-07-31T05:34:50;3.63;;;1.80;;
21657;SDS011;10990;48.174;9.782;2023-07-31T05:37:18;4.70;;;2.15;;
21657;SDS011;10990;48.174;9.782;2023-07-31T05:39:44;3.75;;;1.92;;
21657;SDS011;10990;48.174;9.782;2023-07-31T05:42:11;4.32;;;1.70;;
21657;SDS011;10990;48.174;9.782;2023-07-31T05:44:39;3.90;;;2.13;;
21657;SDS011;10990;48.174;9.782;2023-07-31T05:47:06;5.18;;;1.90;;
21657;SDS011;10990;48.174;9.782;2023-07-31T05:49:33;7.13;;;1.98;;
21657;SDS011;10990;48.174;9.782;2023-07-31T05:52:00;5.22;;;1.80;;
21657;SDS011;10990;48.174;9.782;2023-07-31T05:54:27;4.55;;;2.05;;
21657;SDS011;10990;48.174;9.782;2023-07-31T05:56:54;5.38;;;1.90;;
21657;SDS011;10990;48.174;9.782;2023-07-31T05:59:20;4.32;;;1.80;;
21657;SDS011;10990;48.174;9.782;2023-07-31T06:01:48;4.45;;;1.80;;
21657;SDS011;10990;48.174;9.782;2023-07-31T06:04:15;2.95;;;1.75;;
21657;SDS011;10990;48.174;9.782;2023-07-31T06:06:42;4.72;;;1.95;;
21657;SDS011;10990;48.174;9.782;2023-07-31T06:09:09;3.85;;;1.60;;
21657;SDS011;10990;48.174;9.782;2023-07-31T06:11:36;5.00;;;1.60;;
21657;SDS011;10990;48.174;9.782;2023-07-31T06:14:03;2.88;;;1.70;;
21657;SDS011;10990;48.174;9.782;2023-07-31T06:16:30;3.10;;;1.58;;
21657;SDS011;10990;48.174;9.782;2023-07-31T06:18:58;5.10;;;1.80;;
21657;SDS011;10990;48.174;9.782;2023-07-31T06:21:25;2.50;;;1.50;;
21657;SDS011;10990;48.174;9.782;2023-07-31T06:23:51;2.65;;;1.30;;
21657;SDS011;10990;48.174;9.782;2023-07-31T06:26:18;2.70;;;1.60;;
21657;SDS011;10990;48.174;9.782;2023-07-31T06:28:45;3.03;;;1.50;;
21657;SDS011;10990;48.174;9.782;2023-07-31T06:31:12;3.70;;;1.58;;
21657;SDS011;10990;48.174;9.782;2023-07-31T06:33:39;3.30;;;1.63;;
21657;SDS011;10990;48.174;9.782;2023-07-31T06:36:07;1.83;;;1.30;;
21657;SDS011;10990;48.174;9.782;2023-07-31T06:38:33;4.55;;;1.70;;
21657;SDS011;10990;48.174;9.782;2023-07-31T06:41:00;2.20;;;1.48;;
21657;SDS011;10990;48.174;9.782;2023-07-31T06:43:27;1.63;;;1.20;;
21657;SDS011;10990;48.174;9.782;2023-07-31T06:45:54;3.22;;;1.50;;
21657;SDS011;10990;48.174;9.782;2023-07-31T06:48:20;3.72;;;1.50;;
21657;SDS011;10990;48.174;9.782;2023-07-31T06:50:47;3.40;;;1.30;;
21657;SDS011;10990;48.174;9.782;2023-07-31T06:53:15;3.25;;;1.60;;
21657;SDS011;10990;48.174;9.782;2023-07-31T06:55:42;3.08;;;1.40;;
21657;SDS011;10990;48.174;9.782;2023-07-31T06:58:09;3.75;;;1.70;;
21657;SDS011;10990;48.174;9.782;2023-07-31T07:00:35;4.28;;;1.75;;
21657;SDS011;10990;48.174;9.782;2023-07-31T07:03:02;3.45;;;1.40;;
21657;SDS011;10990;48.174;9.782;2023-07-31T07:05:29;3.22;;;1.35;;
21657;SDS011;10990;48.174;9.782;2023-07-31T07:07:56;3.90;;;1.50;;
21657;SDS011;10990;48.174;9.782;2023-07-31T07:10:24;3.55;;;1.67;;
21657;SDS011;10990;48.174;9.782;2023-07-31T07:12:51;2.75;;;1.60;;
21657;SDS011;10990;48.174;9.782;2023-07-31T07:15:17;3.20;;;1.50;;
21657;SDS011;10990;48.174;9.782;2023-07-31T07:17:44;5.22;;;1.80;;
21657;SDS011;10990;48.174;9.782;2023-07-31T07:20:12;6.90;;;1.85;;
21657;SDS011;10990;48.174;9.782;2023-07-31T07:22:38;5.13;;;1.60;;
21657;SDS011;10990;48.174;9.782;2023-07-31T07:25:08;4.05;;;1.60;;
21657;SDS011;10990;48.174;9.782;2023-07-31T07:27:36;5.90;;;1.88;;
21657;SDS011;10990;48.174;9.782;2023-07-31T07:30:04;3.65;;;1.60;;
21657;SDS011;10990;48.174;9.782;2023-07-31T07:32:31;3.20;;;1.40;;
21657;SDS011;10990;48.174;9.782;2023-07-31T07:34:58;3.65;;;1.60;;
21657;SDS011;10990;48.174;9.782;2023-07-31T07:37:25;3.85;;;1.65;;
21657;SDS011;10990;48.174;9.782;2023-07-31T07:39:51;4.90;;;1.42;;
21657;SDS011;10990;48.174;9.782;2023-07-31T07:42:18;5.05;;;1.50;;
21657;SDS011;10990;48.174;9.782;2023-07-31T07:44:46;3.25;;;1.50;;
21657;SDS011;10990;48.174;9.782;2023-07-31T07:47:13;3.50;;;1.50;;
21657;SDS011;10990;48.174;9.782;2023-07-31T07:49:40;4.10;;;1.75;;
21657;SDS011;10990;48.174;9.782;2023-07-31T07:52:07;4.30;;;1.60;;
21657;SDS011;10990;48.174;9.782;2023-07-31T07:54:33;4.05;;;1.52;;
21657;SDS011;10990;48.174;9.782;2023-07-31T07:57:00;2.35;;;1.33;;
21657;SDS011;10990;48.174;9.782;2023-07-31T07:59:27;3.88;;;1.50;;
21657;SDS011;10990;48.174;9.782;2023-07-31T08:01:55;4.13;;;1.50;;
21657;SDS011;10990;48.174;9.782;2023-07-31T08:04:22;2.63;;;1.60;;
21657;SDS011;10990;48.174;9.782;2023-07-31T08:06:49;4.38;;;1.63;;
21657;SDS011;10990;48.174;9.782;2023-07-31T08:09:16;3.15;;;1.30;;
21657;SDS011;10990;48.174;9.782;2023-07-31T08:11:42;3.22;;;1.60;;
21657;SDS011;10990;48.174;9.782;2023-07-31T08:14:09;2.58;;;1.30;;
21657;SDS011;10990;48.174;9.782;2023-07-31T08:16:36;4.00;;;1.52;;
21657;SDS011;10990;48.174;9.782;2023-07-31T08:19:04;3.15;;;1.60;;
21657;SDS011;10990;48.174;9.782;2023-07-31T08:21:31;4.25;;;1.50;;
21657;SDS011;10990;48.174;9.782;2023-07-31T08:23:58;3.40;;;1.60;;
21657;SDS011;10990;48.174;9.782;2023-07-31T08:26:24;3.95;;;1.60;;
21657;SDS011;10990;48.174;9.782;2023-07-31T08:28:51;3.03;;;1.40;;
21657;SDS011;10990;48.174;9.782;2023-07-31T08:31:18;3.67;;;1.45;;
21657;SDS011;10990;48.174;9.782;2023-07-31T08:33:45;2.67;;;1.55;;
21657;SDS011;10990;48.174;9.782;2023-07-31T08:36:13;3.30;;;1.70;;
21657;SDS011;10990;48.174;9.782;2023-07-31T08:38:40;3.30;;;1.50;;
21657;SDS011;10990;48.174;9.782;2023-07-31T08:41:07;3.78;;;1.73;;
21657;SDS011;10990;48.174;9.782;2023-07-31T08:43:34;2.85;;;1.60;;
21657;SDS011;10990;48.174;9.782;2023-07-31T08:46:02;4.03;;;1.70;;
21657;SDS011;10990;48.174;9.782;2023-07-31T08:48:29;3.20;;;1.60;;
21657;SDS011;10990;48.174;9.782;2023-07-31T08:50:58;3.35;;;1.80;;
21657;SDS011;10990;48.174;9.782;2023-07-31T08:53:26;3.58;;;1.45;;
21657;SDS011;10990;48.174;9.782;2023-07-31T08:55:53;2.30;;;1.55;;
21657;SDS011;10990;48.174;9.782;2023-07-31T08:58:21;2.08;;;1.55;;
21657;SDS011;10990;48.174;9.782;2023-07-31T09:00:49;4.18;;;1.80;;
21657;SDS011;10990;48.174;9.782;2023-07-31T09:03:17;2.92;;;1.73;;
21657;SDS011;10990;48.174;9.782;2023-07-31T09:05:45;3.67;;;1.80;;
21657;SDS011;10990;48.174;9.782;2023-07-31T09:08:13;3.72;;;1.70;;
21657;SDS011;10990;48.174;9.782;2023-07-31T09:10:46;2.53;;;1.65;;
21657;SDS011;10990;48.174;9.782;2023-07-31T09:13:13;2.83;;;1.70;;
21657;SDS011;10990;48.174;9.782;2023-07-31T09:15:40;2.40;;;1.75;;
21657;SDS011;10990;48.174;9.782;2023-07-31T09:18:09;3.50;;;1.85;;
21657;SDS011;10990;48.174;9.782;2023-07-31T09:20:36;2.67;;;1.60;;
21657;SDS011;10990;48.174;9.782;2023-07-31T09:23:07;3.13;;;1.67;;
21657;SDS011;10990;48.174;9.782;2023-07-31T09:25:35;3.85;;;1.73;;
21657;SDS011;10990;48.174;9.782;2023-07-31T09:28:04;2.97;;;1.48;;
21657;SDS011;10990;48.174;9.782;2023-07-31T09:30:43;2.65;;;1.73;;
21657;SDS011;10990;48.174;9.782;2023-07-31T09:33:12;2.08;;;1.48;;
21657;SDS011;10990;48.174;9.782;2023-07-31T09:35:38;3.85;;;2.00;;
21657;SDS011;10990;48.174;9.782;2023-07-31T09:38:07;5.18;;;1.85;;
21657;SDS011;10990;48.174;9.782;2023-07-31T09:40:35;4.13;;;1.80;;
21657;SDS011;10990;48.174;9.782;2023-07-31T09:43:05;2.67;;;1.70;;
21657;SDS011;10990;48.174;9.782;2023-07-31T09:45:34;3.15;;;1.60;;
21657;SDS011;10990;48.174;9.782;2023-07-31T09:48:02;2.65;;;1.77;;
21657;SDS011;10990;48.174;9.782;2023-07-31T09:50:34;4.18;;;1.80;;
21657;SDS011;10990;48.174;9.782;2023-07-31T09:53:03;2.85;;;2.10;;
21657;SDS011;10990;48.174;9.782;2023-07-31T09:55:30;3.85;;;1.80;;
21657;SDS011;10990;48.174;9.782;2023-07-31T09:57:56;3.45;;;2.08;;
21657;SDS011;10990;48.174;9.782;2023-07-31T10:00:25;4.25;;;1.80;;
21657;SDS011;10990;48.174;9.782;2023-07-31T10:02:53;5.90;;;2.20;;
21657;SDS011;10990;48.174;9.782;2023-07-31T10:05:23;6.30;;;2.00;;
21657;SDS011;10990;48.174;9.782;2023-07-31T10:07:54;3.00;;;1.77;;
21657;SDS011;10990;48.174;9.782;2023-07-31T10:10:22;4.53;;;2.00;;
21657;SDS011;10990;48.174;9.782;2023-07-31T10:12:49;4.68;;;1.80;;
21657;SDS011;10990;48.174;9.782;2023-07-31T10:15:18;4.82;;;1.90;;
21657;SDS011;10990;48.174;9.782;2023-07-31T10:17:47;3.08;;;1.85;;
21657;SDS011;10990;48.174;9.782;2023-07-31T10:20:15;4.63;;;2.00;;
21657;SDS011;10990;48.174;9.782;2023-07-31T10:22:42;3.83;;;1.80;;
21657;SDS011;10990;48.174;9.782;2023-07-31T10:25:11;3.22;;;1.70;;
21657;SDS011;10990;48.174;9.782;2023-07-31T10:27:38;4.28;;;2.00;;
21657;SDS011;10990;48.174;9.782;2023-07-31T10:30:06;4.28;;;1.80;;
21657;SDS011;10990;48.174;9.782;2023-07-31T10:32:36;4.15;;;2.00;;
21657;SDS011;10990;48.174;9.782;2023-07-31T10:35:07;2.17;;;1.60;;
21657;SDS011;10990;48.174;9.782;2023-07-31T10:37:39;4.60;;;1.90;;
21657;SDS011;10990;48.174;9.782;2023-07-31T10:40:09;4.60;;;1.73;;
21657;SDS011;10990;48.174;9.782;2023-07-31T10:42:38;3.50;;;1.80;;
21657;SDS011;10990;48.174;9.782;2023-07-31T10:45:12;3.97;;;1.77;;
21657;SDS011;10990;48.174;9.782;2023-07-31T10:47:42;3.38;;;2.00;;
21657;SDS011;10990;48.174;9.782;2023-07-31T10:50:16;3.85;;;1.90;;
21657;SDS011;10990;48.174;9.782;2023-07-31T10:52:48;2.35;;;1.77;;
21657;SDS011;10990;48.174;9.782;2023-07-31T10:55:24;3.60;;;1.77;;
21657;SDS011;10990;48.174;9.782;2023-07-31T10:57:52;3.38;;;2.10;;
21657;SDS011;10990;48.174;9.782;2023-07-31T11:00:24;2.53;;;1.80;;
21657;SDS011;10990;48.174;9.782;2023-07-31T11:02:56;2.60;;;1.85;;
21657;SDS011;10990;48.174;9.782;2023-07-31T11:08:12;5.50;;;2.20;;
21657;SDS011;10990;48.174;9.782;2023-07-31T11:10:40;4.70;;;2.13;;
21657;SDS011;10990;48.174;9.782;2023-07-31T11:13:07;3.42;;;1.80;;
21657;SDS011;10990;48.174;9.782;2023-07-31T11:15:33;2.72;;;1.98;;
21657;SDS011;10990;48.174;9.782;2023-07-31T11:18:00;4.05;;;2.10;;
21657;SDS011;10990;48.174;9.782;2023-07-31T11:20:29;5.63;;;2.10;;
21657;SDS011;10990;48.174;9.782;2023-07-31T11:22:59;3.20;;;1.80;;
21657;SDS011;10990;48.174;9.782;2023-07-31T11:25:28;3.42;;;1.70;;
21657;SDS011;10990;48.174;9.782;2023-07-31T11:27:56;5.78;;;2.10;;
21657;SDS011;10990;48.174;9.782;2023-07-31T11:30:23;5.00;;;2.00;;
21657;SDS011;10990;48.174;9.782;2023-07-31T11:32:50;6.20;;;1.90;;
21657;SDS011;10990;48.174;9.782;2023-07-31T11:35:17;4.85;;;1.88;;
21657;SDS011;10990;48.174;9.782;2023-07-31T11:37:44;6.38;;;1.90;;
21657;SDS011;10990;48.174;9.782;2023-07-31T11:40:13;2.85;;;1.83;;
21657;SDS011;10990;48.174;9.782;2023-07-31T11:42:40;3.70;;;1.85;;
21657;SDS011;10990;48.174;9.782;2023-07-31T11:45:07;5.60;;;1.70;;
21657;SDS011;10990;48.174;9.782;2023-07-31T11:47:36;5.30;;;1.90;;
21657;SDS011;10990;48.174;9.782;2023-07-31T11:50:04;3.63;;;1.98;;
21657;SDS011;10990;48.174;9.782;2023-07-31T11:52:34;5.82;;;2.00;;
21657;SDS011;10990;48.174;9.782;2023-07-31T11:55:04;4.22;;;1.75;;
21657;SDS011;10990;48.174;9.782;2023-07-31T11:57:36;3.72;;;1.70;;
21657;SDS011;10990;48.174;9.782;2023-07-31T12:00:05;3.92;;;1.92;;
21657;SDS011;10990;48.174;9.782;2023-07-31T12:02:34;5.03;;;2.00;;
21657;SDS011;10990;48.174;9.782;2023-07-31T12:05:02;3.75;;;1.70;;
21657;SDS011;10990;48.174;9.782;2023-07-31T12:07:42;2.88;;;1.80;;
21657;SDS011;10990;48.174;9.782;2023-07-31T12:10:09;4.57;;;2.15;;
21657;SDS011;10990;48.174;9.782;2023-07-31T12:12:37;3.20;;;2.10;;
21657;SDS011;10990;48.174;9.782;2023-07-31T12:15:13;4.78;;;2.05;;
21657;SDS011;10990;48.174;9.782;2023-07-31T12:17:40;2.70;;;1.98;;
21657;SDS011;10990;48.174;9.782;2023-07-31T12:20:08;4.32;;;2.08;;
21657;SDS011;10990;48.174;9.782;2023-07-31T12:22:35;6.07;;;2.20;;
21657;SDS011;10990;48.174;9.782;2023-07-31T12:25:02;5.50;;;2.10;;
21657;SDS011;10990;48.174;9.782;2023-07-31T12:27:32;3.53;;;1.92;;
21657;SDS011;10990;48.174;9.782;2023-07-31T12:30:00;4.20;;;2.00;;
21657;SDS011;10990;48.174;9.782;2023-07-31T12:32:29;2.72;;;2.00;;
21657;SDS011;10990;48.174;9.782;2023-07-31T12:34:59;4.28;;;1.90;;
21657;SDS011;10990;48.174;9.782;2023-07-31T12:37:28;2.53;;;1.63;;
21657;SDS011;10990;48.174;9.782;2023-07-31T12:39:55;4.32;;;1.95;;
21657;SDS011;10990;48.174;9.782;2023-07-31T12:42:25;4.35;;;1.90;;
21657;SDS011;10990;48.174;9.782;2023-07-31T12:44:52;4.00;;;1.92;;
21657;SDS011;10990;48.174;9.782;2023-07-31T12:47:20;4.15;;;2.10;;
21657;SDS011;10990;48.174;9.782;2023-07-31T12:49:47;3.13;;;2.00;;
21657;SDS011;10990;48.174;9.782;2023-07-31T12:52:14;3.50;;;2.30;;
21657;SDS011;10990;48.174;9.782;2023-07-31T12:54:41;4.07;;;1.90;;
21657;SDS011;10990;48.174;9.782;2023-07-31T12:57:07;3.83;;;2.10;;
21657;SDS011;10990;48.174;9.782;2023-07-31T12:59:34;2.97;;;2.13;;
21657;SDS011;10990;48.174;9.782;2023-07-31T13:02:01;3.30;;;2.40;;
21657;SDS011;10990;48.174;9.782;2023-07-31T13:04:29;3.60;;;2.00;;
21657;SDS011;10990;48.174;9.782;2023-07-31T13:06:56;4.32;;;2.10;;
21657;SDS011;10990;48.174;9.782;2023-07-31T13:09:23;3.70;;;2.40;;
21657;SDS011;10990;48.174;9.782;2023-07-31T13:11:50;2.90;;;2.10;;
21657;SDS011;10990;48.174;9.782;2023-07-31T13:14:16;3.83;;;1.83;;
21657;SDS011;10990;48.174;9.782;2023-07-31T13:16:43;6.05;;;2.50;;
21657;SDS011;10990;48.174;9.782;2023-07-31T13:19:10;3.30;;;2.00;;
21657;SDS011;10990;48.174;9.782;2023-07-31T13:21:38;3.38;;;1.92;;
21657;SDS011;10990;48.174;9.782;2023-07-31T13:24:05;4.28;;;2.63;;
21657;SDS011;10990;48.174;9.782;2023-07-31T13:26:32;3.72;;;2.05;;
21657;SDS011;10990;48.174;9.782;2023-07-31T13:28:59;3.10;;;2.15;;
21657;SDS011;10990;48.174;9.782;2023-07-31T13:31:26;3.22;;;2.10;;
21657;SDS011;10990;48.174;9.782;2023-07-31T13:33:52;5.25;;;2.38;;
21657;SDS011;10990;48.174;9.782;2023-07-31T13:36:19;3.95;;;2.20;;
21657;SDS011;10990;48.174;9.782;2023-07-31T13:38:47;5.72;;;2.35;;
21657;SDS011;10990;48.174;9.782;2023-07-31T13:41:14;4.03;;;2.40;;
21657;SDS011;10990;48.174;9.782;2023-07-31T13:43:41;5.93;;;2.50;;
21657;SDS011;10990;48.174;9.782;2023-07-31T13:46:06;5.30;;;2.35;;
21657;SDS011;10990;48.174;9.782;2023-07-31T13:48:35;4.65;;;2.40;;
21657;SDS011;10990;48.174;9.782;2023-07-31T13:51:03;5.43;;;2.28;;
21657;SDS011;10990;48.174;9.782;2023-07-31T13:53:29;4.03;;;2.35;;
21657;SDS011;10990;48.174;9.782;2023-07-31T13:55:58;4.25;;;2.38;;
21657;SDS011;10990;48.174;9.782;2023-07-31T13:58:24;4.30;;;2.03;;
21657;SDS011;10990;48.174;9.782;2023-07-31T14:00:51;6.68;;;2.67;;
21657;SDS011;10990;48.174;9.782;2023-07-31T14:03:18;3.10;;;2.15;;
21657;SDS011;10990;48.174;9.782;2023-07-31T14:05:45;7.88;;;2.50;;
21657;SDS011;10990;48.174;9.782;2023-07-31T14:08:11;5.07;;;2.50;;
21657;SDS011;10990;48.174;9.782;2023-07-31T14:10:38;2.97;;;2.40;;
21657;SDS011;10990;48.174;9.782;2023-07-31T14:13:06;3.72;;;2.30;;
21657;SDS011;10990;48.174;9.782;2023-07-31T14:15:33;5.28;;;2.50;;
21657;SDS011;10990;48.174;9.782;2023-07-31T14:18:01;3.83;;;2.20;;
21657;SDS011;10990;48.174;9.782;2023-07-31T14:20:27;3.20;;;2.15;;
21657;SDS011;10990;48.174;9.782;2023-07-31T14:22:54;4.20;;;2.30;;
21657;SDS011;10990;48.174;9.782;2023-07-31T14:25:21;2.40;;;1.90;;
21657;SDS011;10990;48.174;9.782;2023-07-31T14:27:48;3.28;;;1.98;;
21657;SDS011;10990;48.174;9.782;2023-07-31T14:30:16;5.10;;;2.10;;
21657;SDS011;10990;48.174;9.782;2023-07-31T14:32:43;3.05;;;2.20;;
21657;SDS011;10990;48.174;9.782;2023-07-31T14:35:10;5.22;;;2.10;;
21657;SDS011;10990;48.174;9.782;2023-07-31T14:37:37;7.38;;;2.22;;
21657;SDS011;10990;48.174;9.782;2023-07-31T14:40:07;9.93;;;2.13;;
21657;SDS011;10990;48.174;9.782;2023-07-31T14:42:34;6.45;;;2.22;;
21657;SDS011;10990;48.174;9.782;2023-07-31T14:45:01;12.50;;;2.30;;
21657;SDS011;10990;48.174;9.782;2023-07-31T14:47:29;3.20;;;2.05;;
21657;SDS011;10990;48.174;9.782;2023-07-31T14:49:57;5.15;;;2.05;;
21657;SDS011;10990;48.174;9.782;2023-07-31T14:52:24;3.05;;;2.08;;